Time;durP1;ratioP1;P1;durP2;ratioP2;P2;SDS_P1;SDS_P2;PMS_P1;PMS_P2;Temp;Humidity;BMP_temperature;BMP_pressure;BME280_temperature;BME280_humidity;BME280_pressure;Samples;Min_cycle;Max_cycle;Signal;HPM_P1;HPM_P2
2023/09/10 00:01:33;;;;;;;16.55;10.80;;;20.00;99.90;;;;;;5017380;28;20249;-72
2023/09/10 00:04:01;;;;;;;17.92;12.13;;;19.90;99.90;;;;;;5014146;28;20207;-72
2023/09/10 00:06:32;;;;;;;12.18;10.80;;;19.90;99.90;;;;;;5025923;28;20210;-72
2023/09/10 00:09:00;;;;;;;14.77;10.77;;;19.80;99.90;;;;;;5033368;28;20649;-72
2023/09/10 00:11:29;;;;;;;13.70;11.60;;;19.80;99.90;;;;;;5034030;28;20281;-72
2023/09/10 00:13:57;;;;;;;14.18;11.25;;;19.70;99.90;;;;;;5033723;28;20242;-72
2023/09/10 00:16:25;;;;;;;10.75;9.65;;;19.60;99.90;;;;;;5033587;28;20198;-72
2023/09/10 00:18:53;;;;;;;12.85;10.20;;;19.60;99.90;;;;;;5033617;28;20226;-72
2023/09/10 00:21:21;;;;;;;16.15;10.20;;;19.60;99.90;;;;;;5033678;28;20218;-72
2023/09/10 00:23:48;;;;;;;11.23;10.13;;;19.60;99.90;;;;;;5033809;28;20234;-72
2023/09/10 00:26:16;;;;;;;13.88;10.63;;;19.60;99.90;;;;;;5033029;28;20238;-72
2023/09/10 00:28:46;;;;;;;11.63;10.43;;;19.60;99.90;;;;;;5033495;28;20279;-72
2023/09/10 00:31:14;;;;;;;12.82;11.50;;;19.60;99.90;;;;;;5033561;28;20206;-72
2023/09/10 00:33:41;;;;;;;15.35;11.40;;;19.60;99.90;;;;;;5032308;28;20627;-72
2023/09/10 00:36:09;;;;;;;13.80;10.60;;;19.60;99.90;;;;;;5033012;28;20260;-72
2023/09/10 00:38:37;;;;;;;13.32;11.50;;;19.60;99.90;;;;;;5032815;28;20300;-72
2023/09/10 00:41:07;;;;;;;13.27;10.82;;;19.50;99.90;;;;;;5033407;28;20206;-72
2023/09/10 00:43:35;;;;;;;13.45;10.50;;;19.50;99.90;;;;;;5033295;28;20564;-72
2023/09/10 00:46:04;;;;;;;12.25;11.05;;;19.40;99.90;;;;;;5033010;28;20228;-72
2023/09/10 00:48:33;;;;;;;13.88;11.40;;;19.40;99.90;;;;;;5033200;28;20301;-73
2023/09/10 00:51:00;;;;;;;12.27;10.85;;;19.40;99.90;;;;;;5033309;28;20210;-71
2023/09/10 00:53:28;;;;;;;13.70;11.38;;;19.40;99.90;;;;;;5033168;28;20198;-72
2023/09/10 00:55:56;;;;;;;12.32;11.13;;;19.30;99.90;;;;;;5032833;28;20245;-72
2023/09/10 00:58:24;;;;;;;12.20;11.00;;;19.30;99.90;;;;;;5032881;28;20592;-72
2023/09/10 01:00:52;;;;;;;13.30;10.80;;;19.30;99.90;;;;;;5032867;28;20241;-72
2023/09/10 01:03:22;;;;;;;13.00;11.65;;;19.30;99.90;;;;;;5024671;28;20306;-72
2023/09/10 01:05:50;;;;;;;12.93;11.48;;;19.20;99.90;;;;;;5032781;28;20646;-72
2023/09/10 01:08:18;;;;;;;11.95;10.75;;;19.20;99.90;;;;;;5032726;28;20288;-72
2023/09/10 01:11:00;;;;;;;12.95;11.55;;;19.20;99.90;;;;;;5032682;28;20709;-72
2023/09/10 01:13:34;;;;;;;12.15;11.02;;;19.20;99.90;;;;;;5021379;28;20670;-72
2023/09/10 01:16:05;;;;;;;14.35;11.07;;;19.10;99.90;;;;;;5028692;28;20206;-72
2023/09/10 01:18:37;;;;;;;11.90;10.70;;;19.00;99.90;;;;;;5012780;28;20203;-72
2023/09/10 01:21:22;;;;;;;13.38;11.02;;;19.10;99.90;;;;;;5013111;28;20206;-72
2023/09/10 01:23:52;;;;;;;17.08;11.00;;;19.00;99.90;;;;;;5018251;28;20308;-72
2023/09/10 01:26:21;;;;;;;11.85;10.57;;;19.00;99.90;;;;;;5022512;28;20210;-72
2023/09/10 01:28:49;;;;;;;13.00;10.88;;;19.00;99.90;;;;;;5011988;28;20314;-72
2023/09/10 01:31:17;;;;;;;12.95;11.60;;;19.00;99.90;;;;;;5013614;28;20211;-72
2023/09/10 01:33:47;;;;;;;12.52;10.52;;;18.90;99.90;;;;;;5018682;28;20658;-71
2023/09/10 01:36:16;;;;;;;15.98;11.35;;;18.90;99.90;;;;;;5012959;28;20242;-72
2023/09/10 01:38:47;;;;;;;11.75;10.52;;;18.90;99.90;;;;;;5023944;28;20288;-71
2023/09/10 01:41:16;;;;;;;11.88;10.77;;;18.90;99.90;;;;;;5014979;28;20238;-72
2023/09/10 01:47:33;;;;;;;11.98;10.18;;;18.80;99.90;;;;;;5019940;28;20234;-72
2023/09/10 01:50:01;;;;;;;11.20;10.05;;;18.80;99.90;;;;;;5012403;28;20276;-72
2023/09/10 01:52:29;;;;;;;11.48;10.38;;;18.80;99.90;;;;;;5012352;28;20217;-72
2023/09/10 01:54:57;;;;;;;12.18;9.75;;;18.80;99.90;;;;;;5012167;28;20298;-72
2023/09/10 01:57:25;;;;;;;11.30;9.60;;;18.70;99.90;;;;;;5011641;28;20249;-72
2023/09/10 01:59:53;;;;;;;12.45;10.65;;;18.70;99.90;;;;;;5012430;28;20313;-72
2023/09/10 02:02:20;;;;;;;11.73;10.55;;;18.70;99.90;;;;;;5011988;28;20254;-72
2023/09/10 02:04:50;;;;;;;13.80;10.60;;;18.70;99.90;;;;;;5012406;28;20206;-72
2023/09/10 02:07:18;;;;;;;11.40;10.38;;;18.60;99.90;;;;;;5012808;28;20202;-72
2023/09/10 02:09:45;;;;;;;16.73;10.80;;;18.60;99.90;;;;;;5018883;28;20222;-72
2023/09/10 02:12:13;;;;;;;12.13;10.90;;;18.60;99.90;;;;;;5011666;28;20302;-72
2023/09/10 02:14:42;;;;;;;12.20;10.35;;;18.60;99.90;;;;;;5012134;28;20611;-72
2023/09/10 02:17:10;;;;;;;11.98;10.73;;;18.60;99.90;;;;;;5011797;28;20294;-72
2023/09/10 02:19:38;;;;;;;12.25;10.27;;;18.60;99.90;;;;;;5012030;28;20231;-72
2023/09/10 02:22:07;;;;;;;12.20;10.63;;;18.50;99.90;;;;;;5011887;28;20215;-72
2023/09/10 02:24:35;;;;;;;11.40;10.25;;;18.50;99.90;;;;;;5019699;28;20313;-72
2023/09/10 02:27:03;;;;;;;18.33;11.52;;;18.50;99.90;;;;;;5011779;28;20281;-72
2023/09/10 02:29:31;;;;;;;17.83;11.68;;;18.40;99.90;;;;;;5011890;28;20230;-72
2023/09/10 02:31:59;;;;;;;13.45;10.52;;;18.40;99.90;;;;;;5018625;28;20202;-72
2023/09/10 02:34:27;;;;;;;12.73;11.30;;;18.40;99.90;;;;;;5012885;28;20253;-72
2023/09/10 02:36:55;;;;;;;12.05;10.20;;;18.40;99.90;;;;;;5011560;28;20703;-72
2023/09/10 02:39:25;;;;;;;13.18;11.25;;;18.40;99.90;;;;;;5011303;28;20242;-72
2023/09/10 02:41:52;;;;;;;11.85;10.50;;;18.30;99.90;;;;;;5017596;28;20210;-72
2023/09/10 02:44:20;;;;;;;12.15;10.15;;;18.30;99.90;;;;;;5015405;28;20775;-72
2023/09/10 02:46:48;;;;;;;12.07;9.98;;;18.20;99.90;;;;;;5011386;28;20238;-72
2023/09/10 02:49:18;;;;;;;10.85;9.80;;;18.20;99.90;;;;;;5011240;28;20230;-72
2023/09/10 02:51:45;;;;;;;13.82;9.60;;;18.20;99.90;;;;;;5015136;28;20233;-72
2023/09/10 02:54:13;;;;;;;10.98;9.75;;;18.20;99.90;;;;;;5021548;28;20305;-72
2023/09/10 02:56:42;;;;;;;14.45;10.00;;;18.20;99.90;;;;;;5011181;28;20301;-72
2023/09/10 02:59:19;;;;;;;12.13;10.73;;;18.20;99.90;;;;;;5021222;28;20311;-72
2023/09/10 03:01:48;;;;;;;11.27;9.98;;;18.10;99.90;;;;;;5027030;28;20216;-72
2023/09/10 03:04:16;;;;;;;10.88;9.82;;;18.10;99.90;;;;;;5018054;28;20269;-72
2023/09/10 03:06:44;;;;;;;9.93;8.95;;;18.10;99.90;;;;;;5015462;28;20217;-72
2023/09/10 03:09:12;;;;;;;11.73;9.75;;;18.00;99.90;;;;;;5021797;28;20249;-72
2023/09/10 03:11:42;;;;;;;10.77;9.02;;;18.00;99.90;;;;;;5015010;28;20203;-72
2023/09/10 03:14:10;;;;;;;13.30;10.40;;;18.00;99.90;;;;;;5015083;28;20666;-72
2023/09/10 03:16:39;;;;;;;16.35;10.93;;;18.00;99.90;;;;;;5014754;28;20642;-72
2023/09/10 03:19:07;;;;;;;10.25;9.38;;;18.00;99.90;;;;;;5015091;28;20266;-72
2023/09/10 03:21:36;;;;;;;13.10;9.98;;;17.90;99.90;;;;;;5015490;28;20286;-72
2023/09/10 03:24:05;;;;;;;10.70;9.60;;;17.90;99.90;;;;;;5015149;28;20292;-72
2023/09/10 03:26:32;;;;;;;11.10;9.18;;;17.90;99.90;;;;;;5014893;28;20242;-72
2023/09/10 03:29:02;;;;;;;12.90;10.25;;;17.90;99.90;;;;;;5014706;28;20227;-72
2023/09/10 03:31:30;;;;;;;17.85;10.18;;;17.90;99.90;;;;;;5018378;28;20202;-72
2023/09/10 03:33:58;;;;;;;11.95;10.23;;;17.90;99.90;;;;;;5014667;28;20739;-72
2023/09/10 03:36:26;;;;;;;14.63;11.93;;;17.90;99.90;;;;;;5014802;28;20218;-72
2023/09/10 03:38:54;;;;;;;13.48;11.93;;;17.80;99.90;;;;;;5014576;28;20266;-72
2023/09/10 03:41:22;;;;;;;15.57;12.05;;;17.90;99.90;;;;;;5016454;28;20231;-72
2023/09/10 03:43:50;;;;;;;13.50;12.02;;;17.90;99.90;;;;;;5014455;28;20276;-72
2023/09/10 03:46:19;;;;;;;17.05;12.45;;;17.90;99.90;;;;;;5014467;28;20285;-72
2023/09/10 03:48:47;;;;;;;12.63;11.43;;;17.90;99.90;;;;;;5014375;28;20670;-72
2023/09/10 03:51:15;;;;;;;11.30;10.20;;;17.90;99.90;;;;;;5014714;28;20289;-72
2023/09/10 03:53:44;;;;;;;14.25;11.88;;;17.90;99.90;;;;;;5026441;28;20206;-74
2023/09/10 03:56:12;;;;;;;14.73;12.05;;;17.90;99.90;;;;;;5034067;28;20271;-72
2023/09/10 03:58:40;;;;;;;12.88;11.50;;;17.90;99.90;;;;;;5033844;28;20210;-72
2023/09/10 04:01:08;;;;;;;13.43;11.88;;;17.90;99.90;;;;;;5034310;28;20210;-72
2023/09/10 04:03:37;;;;;;;12.93;11.63;;;17.80;99.90;;;;;;5033953;28;20226;-72
2023/09/10 04:06:05;;;;;;;11.57;10.25;;;17.80;99.90;;;;;;5033907;28;20210;-72
2023/09/10 04:08:33;;;;;;;14.02;11.13;;;17.80;99.90;;;;;;5032355;28;20297;-72
2023/09/10 04:11:01;;;;;;;12.95;11.52;;;17.80;99.90;;;;;;5033931;28;20206;-72
2023/09/10 04:13:29;;;;;;;12.18;10.98;;;17.80;99.90;;;;;;5033856;28;20217;-72
2023/09/10 04:15:57;;;;;;;12.95;11.48;;;17.80;99.90;;;;;;5033728;28;20209;-72
2023/09/10 04:18:25;;;;;;;14.73;10.57;;;17.80;99.90;;;;;;5033537;28;20660;-72
2023/09/10 04:20:54;;;;;;;11.23;10.13;;;17.80;99.90;;;;;;5033863;28;20775;-72
2023/09/10 04:23:22;;;;;;;13.68;11.35;;;17.80;99.90;;;;;;5033443;28;20213;-72
2023/09/10 04:25:51;;;;;;;11.93;10.55;;;17.80;99.90;;;;;;5033735;28;20206;-72
2023/09/10 04:28:19;;;;;;;12.50;11.20;;;17.80;99.90;;;;;;5033530;28;20210;-72
2023/09/10 04:30:46;;;;;;;13.45;10.00;;;17.70;99.90;;;;;;5033643;28;20276;-72
2023/09/10 04:33:16;;;;;;;12.43;11.23;;;17.70;99.90;;;;;;5033352;28;20580;-72
2023/09/10 04:35:48;;;;;;;12.07;10.65;;;17.70;99.90;;;;;;5033282;28;20221;-72
2023/09/10 04:38:17;;;;;;;14.98;11.07;;;17.60;99.90;;;;;;5033186;28;20297;-72
2023/09/10 04:40:45;;;;;;;13.30;11.85;;;17.60;99.90;;;;;;5033585;28;20232;-72
2023/09/10 04:43:13;;;;;;;11.63;10.52;;;17.50;99.90;;;;;;5033221;28;20208;-72
2023/09/10 04:45:41;;;;;;;12.07;10.65;;;17.50;99.90;;;;;;5032907;28;20391;-72
2023/09/10 04:48:12;;;;;;;13.85;10.70;;;17.50;99.90;;;;;;5033048;28;20237;-72
2023/09/10 04:50:40;;;;;;;11.68;10.50;;;17.50;99.90;;;;;;5032901;28;20264;-72
2023/09/10 04:53:08;;;;;;;12.48;10.35;;;17.50;99.90;;;;;;5033033;28;20305;-72
2023/09/10 04:55:38;;;;;;;12.45;10.90;;;17.50;99.90;;;;;;5033142;28;20203;-72
2023/09/10 04:58:06;;;;;;;12.82;10.98;;;17.50;99.90;;;;;;5033073;28;20202;-72
2023/09/10 05:00:34;;;;;;;14.45;10.70;;;17.40;99.90;;;;;;5033586;28;20225;-72
2023/09/10 05:03:02;;;;;;;14.02;12.00;;;17.40;99.90;;;;;;5032963;28;20210;-71
2023/09/10 05:05:30;;;;;;;13.02;10.82;;;17.40;99.90;;;;;;5032993;28;20222;-72
2023/09/10 05:07:58;;;;;;;11.35;10.23;;;17.40;99.90;;;;;;5033043;28;20225;-72
2023/09/10 05:10:26;;;;;;;14.13;11.30;;;17.40;99.90;;;;;;5032976;28;20675;-72
2023/09/10 05:12:55;;;;;;;12.43;11.07;;;17.40;99.90;;;;;;5032788;28;20202;-72
2023/09/10 05:15:23;;;;;;;12.73;11.40;;;17.30;99.90;;;;;;5032493;28;20648;-72
2023/09/10 05:17:51;;;;;;;11.50;10.10;;;17.30;99.90;;;;;;5016148;28;20210;-72
2023/09/10 05:20:19;;;;;;;13.10;11.35;;;17.30;99.90;;;;;;5012568;28;20227;-71
2023/09/10 05:22:47;;;;;;;11.98;10.60;;;17.30;99.90;;;;;;5012728;28;20211;-72
2023/09/10 05:25:15;;;;;;;13.40;10.80;;;17.30;99.90;;;;;;5012813;28;20218;-72
2023/09/10 05:27:43;;;;;;;12.73;11.02;;;17.30;99.90;;;;;;5012371;28;20203;-72
2023/09/10 05:30:13;;;;;;;14.55;10.82;;;17.30;99.90;;;;;;5012572;28;20258;-72
2023/09/10 05:32:41;;;;;;;12.00;10.65;;;17.40;99.90;;;;;;5029722;23;20226;-57
2023/09/10 05:35:10;;;;;;;12.48;10.68;;;17.40;99.90;;;;;;5035211;28;20286;-54
2023/09/10 05:37:38;;;;;;;13.90;11.90;;;17.30;99.90;;;;;;5031821;28;20759;-53
2023/09/10 05:40:07;;;;;;;13.23;11.40;;;17.30;99.90;;;;;;5043290;22;20309;-62
2023/09/10 05:42:35;;;;;;;12.30;11.10;;;17.30;99.90;;;;;;5012962;28;20615;-64
2023/09/10 05:45:03;;;;;;;11.60;10.50;;;17.40;99.90;;;;;;5018118;28;20223;-62
2023/09/10 05:47:33;;;;;;;14.35;11.48;;;17.30;99.90;;;;;;5012013;28;20199;-61
2023/09/10 05:50:01;;;;;;;16.63;11.27;;;17.40;99.90;;;;;;5012163;28;20226;-59
2023/09/10 05:52:29;;;;;;;14.60;11.35;;;17.40;99.90;;;;;;5012183;28;20230;-62
2023/09/10 05:54:56;;;;;;;16.75;12.18;;;17.40;99.90;;;;;;5011744;28;20341;-59
2023/09/10 05:57:24;;;;;;;12.52;10.77;;;17.40;99.90;;;;;;5021651;28;20306;-60
2023/09/10 05:59:53;;;;;;;12.00;10.88;;;17.50;99.90;;;;;;5019027;28;20314;-62
2023/09/10 06:02:21;;;;;;;19.27;12.57;;;17.50;99.90;;;;;;5011914;28;20206;-62
2023/09/10 06:04:51;;;;;;;15.02;12.57;;;17.60;99.90;;;;;;5011571;28;20223;-62
2023/09/10 06:07:19;;;;;;;13.05;11.80;;;17.60;99.90;;;;;;5019941;28;20278;-64
2023/09/10 06:09:47;;;;;;;14.82;13.05;;;17.70;99.90;;;;;;5019677;28;20318;-63
2023/09/10 06:12:15;;;;;;;13.82;12.43;;;17.70;99.90;;;;;;5027227;28;20201;-63
2023/09/10 06:14:42;;;;;;;13.50;12.10;;;17.80;99.90;;;;;;5020589;28;20234;-62
2023/09/10 06:17:10;;;;;;;15.20;13.70;;;17.90;99.90;;;;;;5020179;28;20234;-64
2023/09/10 06:19:38;;;;;;;16.75;13.60;;;17.90;99.90;;;;;;5019578;28;20241;-62
2023/09/10 06:22:07;;;;;;;15.35;12.88;;;18.00;99.90;;;;;;5019635;28;20234;-62
2023/09/10 06:24:35;;;;;;;13.57;12.27;;;18.10;99.90;;;;;;5021375;28;20221;-62
2023/09/10 06:27:04;;;;;;;17.92;14.48;;;18.10;99.90;;;;;;5026134;28;20649;-62
2023/09/10 06:29:32;;;;;;;16.73;14.10;;;18.20;99.90;;;;;;5020615;28;20229;-62
2023/09/10 06:31:59;;;;;;;15.48;13.43;;;18.30;99.90;;;;;;5026029;28;20241;-62
2023/09/10 06:34:27;;;;;;;13.95;11.82;;;18.40;99.90;;;;;;5019915;28;20213;-62
2023/09/10 06:36:55;;;;;;;13.15;11.85;;;18.40;99.90;;;;;;5018857;28;20368;-62
2023/09/10 06:39:24;;;;;;;15.18;12.60;;;18.50;99.90;;;;;;5011193;28;20317;-62
2023/09/10 06:41:53;;;;;;;14.30;12.88;;;18.60;99.90;;;;;;5011692;28;20207;-62
2023/09/10 06:44:21;;;;;;;15.13;13.13;;;18.70;99.90;;;;;;5011221;28;20230;-62
2023/09/10 06:46:49;;;;;;;18.88;12.85;;;18.70;99.90;;;;;;5010982;28;20268;-62
2023/09/10 06:49:17;;;;;;;16.10;12.27;;;18.80;99.90;;;;;;5011477;28;20242;-62
2023/09/10 06:51:45;;;;;;;15.45;12.75;;;18.90;99.90;;;;;;5021623;28;20298;-62
2023/09/10 06:54:13;;;;;;;18.20;11.48;;;18.90;99.90;;;;;;5014226;28;20301;-62
2023/09/10 06:56:42;;;;;;;13.63;11.65;;;19.00;99.90;;;;;;5021641;28;20203;-63
2023/09/10 06:59:10;;;;;;;14.70;11.35;;;19.10;99.90;;;;;;5010865;28;20313;-62
2023/09/10 07:01:38;;;;;;;12.40;11.30;;;19.20;99.90;;;;;;5011058;28;20207;-63
2023/09/10 07:04:16;;;;;;;15.18;12.13;;;19.30;99.90;;;;;;5011304;28;20210;-63
2023/09/10 07:06:44;;;;;;;14.00;11.98;;;19.40;99.90;;;;;;5010989;28;20227;-63
2023/09/10 07:09:12;;;;;;;15.57;11.88;;;19.50;99.90;;;;;;5010844;28;20257;-63
2023/09/10 07:11:40;;;;;;;13.80;11.63;;;19.60;99.90;;;;;;5011207;28;20207;-63
2023/09/10 07:14:09;;;;;;;12.02;10.82;;;19.60;99.90;;;;;;5010979;28;20269;-63
2023/09/10 07:16:37;;;;;;;14.80;10.68;;;19.80;99.90;;;;;;5011079;28;20210;-63
2023/09/10 07:19:05;;;;;;;13.73;11.45;;;19.90;99.90;;;;;;5011040;28;20317;-63
2023/09/10 07:21:33;;;;;;;13.35;11.13;;;20.00;99.90;;;;;;5011134;28;20755;-63
2023/09/10 07:24:06;;;;;;;13.57;10.55;;;20.00;99.90;;;;;;5011094;28;20337;-63
2023/09/10 07:26:34;;;;;;;16.25;11.13;;;20.10;99.90;;;;;;5010682;28;20227;-63
2023/09/10 07:29:02;;;;;;;10.77;9.80;;;20.20;99.90;;;;;;5010789;28;20300;-63
2023/09/10 07:31:31;;;;;;;11.55;10.32;;;20.30;99.90;;;;;;5011151;28;20206;-64
2023/09/10 07:33:59;;;;;;;11.38;10.27;;;20.30;99.90;;;;;;5011083;28;20626;-62
2023/09/10 07:36:27;;;;;;;11.15;10.07;;;20.40;99.90;;;;;;5010911;28;20236;-62
2023/09/10 07:38:54;;;;;;;10.52;9.40;;;20.50;99.90;;;;;;5010678;28;20284;-62
2023/09/10 07:41:22;;;;;;;10.77;9.25;;;20.60;99.90;;;;;;5010855;28;20206;-63
2023/09/10 07:43:50;;;;;;;12.02;10.10;;;20.70;99.90;;;;;;5012934;28;20730;-62
2023/09/10 07:46:18;;;;;;;10.68;9.45;;;20.70;99.90;;;;;;5014367;28;20284;-62
2023/09/10 07:48:48;;;;;;;11.80;10.00;;;20.80;99.90;;;;;;5014059;28;20608;-62
2023/09/10 07:51:15;;;;;;;10.60;9.63;;;20.90;99.90;;;;;;5014454;28;20294;-62
2023/09/10 07:53:43;;;;;;;10.30;8.85;;;21.00;99.90;;;;;;5013781;28;20313;-62
2023/09/10 07:56:11;;;;;;;14.75;10.40;;;21.10;99.90;;;;;;5014172;28;20203;-62
2023/09/10 07:58:39;;;;;;;10.85;9.75;;;21.20;99.90;;;;;;5013931;28;20234;-62
2023/09/10 08:01:08;;;;;;;15.10;10.48;;;21.30;99.90;;;;;;5014362;28;20198;-62
2023/09/10 08:03:37;;;;;;;13.57;9.32;;;21.30;99.90;;;;;;5014013;28;20226;-62
2023/09/10 08:06:06;;;;;;;12.63;9.65;;;21.40;99.90;;;;;;5013962;28;20215;-63
2023/09/10 08:08:34;;;;;;;10.55;9.60;;;21.50;99.90;;;;;;5013397;28;20307;-63
2023/09/10 08:11:02;;;;;;;9.60;8.75;;;21.60;99.90;;;;;;5013672;28;20712;-64
2023/09/10 08:13:30;;;;;;;10.65;9.52;;;21.70;99.90;;;;;;5013891;28;20214;-63
2023/09/10 08:15:58;;;;;;;14.38;9.52;;;21.80;99.90;;;;;;5021393;28;20660;-63
2023/09/10 08:18:26;;;;;;;10.57;9.50;;;21.90;99.90;;;;;;5013360;28;20207;-63
2023/09/10 08:20:54;;;;;;;9.85;8.85;;;22.00;99.90;;;;;;5013859;28;20210;-63
2023/09/10 08:23:23;;;;;;;13.40;9.20;;;22.20;99.90;;;;;;5022017;28;20199;-63
2023/09/10 08:25:52;;;;;;;10.55;9.50;;;22.20;99.90;;;;;;5013674;28;20223;-63
2023/09/10 08:28:20;;;;;;;9.23;8.35;;;22.40;99.90;;;;;;5020736;28;20206;-63
2023/09/10 08:30:48;;;;;;;11.07;8.30;;;22.50;99.90;;;;;;5033654;28;20654;-63
2023/09/10 08:33:16;;;;;;;8.85;8.10;;;22.60;99.90;;;;;;5019009;28;20211;-64
2023/09/10 08:35:45;;;;;;;9.32;7.88;;;22.60;99.90;;;;;;5021577;28;20211;-64
2023/09/10 08:38:14;;;;;;;8.23;7.50;;;22.80;99.90;;;;;;5013668;28;20217;-63
2023/09/10 08:40:50;;;;;;;8.70;7.97;;;22.90;99.90;;;;;;5013460;28;20246;-64
2023/09/10 08:43:19;;;;;;;8.95;8.10;;;23.00;99.90;;;;;;5013446;28;20202;-64
2023/09/10 08:45:47;;;;;;;8.85;7.93;;;23.10;99.90;;;;;;5013090;28;20242;-64
2023/09/10 08:48:15;;;;;;;8.02;7.40;;;23.20;99.90;;;;;;5013244;28;20198;-64
2023/09/10 08:50:43;;;;;;;8.80;7.90;;;23.30;99.90;;;;;;5013506;28;20281;-63
2023/09/10 08:53:13;;;;;;;8.93;8.05;;;23.50;99.90;;;;;;5013245;28;20226;-65
2023/09/10 08:55:43;;;;;;;8.48;7.57;;;23.60;99.90;;;;;;5012292;28;20211;-65
2023/09/10 08:58:12;;;;;;;8.75;7.85;;;23.70;99.90;;;;;;5013088;28;20250;-63
2023/09/10 09:00:40;;;;;;;9.07;7.65;;;23.80;99.90;;;;;;5013013;28;20849;-65
2023/09/10 09:03:08;;;;;;;8.07;7.47;;;24.00;99.90;;;;;;5013260;28;20202;-64
2023/09/10 09:05:36;;;;;;;8.38;6.88;;;24.20;99.90;;;;;;5012699;28;20209;-65
2023/09/10 09:08:09;;;;;;;9.57;6.90;;;24.30;99.90;;;;;;5012929;28;20310;-65
2023/09/10 09:10:37;;;;;;;10.52;7.45;;;24.50;99.90;;;;;;5012611;28;20227;-65
2023/09/10 09:13:08;;;;;;;7.80;7.10;;;24.70;99.90;;;;;;5013017;28;20261;-65
2023/09/10 09:15:37;;;;;;;8.57;7.88;;;24.90;99.90;;;;;;5012717;28;20242;-63
2023/09/10 09:18:05;;;;;;;8.07;7.20;;;25.00;99.90;;;;;;5012884;28;20199;-65
2023/09/10 09:20:34;;;;;;;8.15;7.45;;;25.10;99.90;;;;;;5012767;28;20231;-64
2023/09/10 09:23:10;;;;;;;7.72;7.03;;;25.30;99.90;;;;;;5021198;28;20281;-64
2023/09/10 09:25:37;;;;;;;8.30;7.35;;;25.40;99.90;;;;;;5013308;28;20261;-64
2023/09/10 09:28:09;;;;;;;7.47;6.78;;;25.60;99.90;;;;;;5028465;28;20333;-64
2023/09/10 09:30:38;;;;;;;7.93;7.32;;;25.80;99.90;;;;;;5013311;28;20226;-64
2023/09/10 09:33:06;;;;;;;11.23;6.78;;;26.00;99.90;;;;;;5024255;28;20208;-64
2023/09/10 09:35:34;;;;;;;10.13;7.55;;;26.10;99.90;;;;;;5032114;28;20206;-64
2023/09/10 09:38:06;;;;;;;8.70;7.60;;;26.40;99.90;;;;;;5032070;28;20205;-64
2023/09/10 09:40:35;;;;;;;9.65;7.20;;;26.50;99.90;;;;;;5032293;28;20241;-64
2023/09/10 09:43:06;;;;;;;8.82;6.85;;;26.70;99.90;;;;;;5032219;28;20256;-64
2023/09/10 09:45:48;;;;;;;8.38;7.63;;;26.90;99.90;;;;;;5031884;28;20206;-64
2023/09/10 09:48:17;;;;;;;8.25;7.50;;;27.20;99.90;;;;;;5031869;28;20230;-64
2023/09/10 09:50:46;;;;;;;8.43;7.72;;;27.40;99.90;;;;;;5032439;28;20651;-64
2023/09/10 09:53:14;;;;;;;7.80;6.93;;;27.50;99.90;;;;;;5032085;28;20225;-64
2023/09/10 09:55:44;;;;;;;7.40;6.82;;;27.80;99.90;;;;;;5031608;28;20213;-64
2023/09/10 09:58:12;;;;;;;9.32;8.18;;;28.10;99.90;;;;;;5031824;28;20290;-64
2023/09/10 10:00:40;;;;;;;7.97;7.18;;;28.40;99.90;;;;;;5023862;28;20313;-64
2023/09/10 10:03:10;;;;;;;10.00;7.50;;;28.60;99.90;;;;;;5027794;28;20202;-64
2023/09/10 10:05:38;;;;;;;7.93;7.13;;;28.80;99.90;;;;;;5020701;28;20231;-64
2023/09/10 10:08:06;;;;;;;7.72;6.90;;;29.00;99.90;;;;;;5023432;28;20647;-64
2023/09/10 10:10:35;;;;;;;7.97;6.60;;;29.30;99.90;;;;;;5015864;28;20222;-64
2023/09/10 10:13:03;;;;;;;8.25;7.28;;;29.50;99.90;;;;;;5012119;28;20555;-64
2023/09/10 10:15:31;;;;;;;11.32;7.45;;;29.80;99.90;;;;;;5011721;28;20286;-65
2023/09/10 10:17:59;;;;;;;7.20;6.50;;;30.10;99.90;;;;;;5012106;28;20207;-65
2023/09/10 10:20:28;;;;;;;8.40;7.15;;;30.30;99.90;;;;;;5019063;28;20224;-64
2023/09/10 10:22:56;;;;;;;7.25;6.60;;;30.60;99.90;;;;;;5021101;28;20202;-64
2023/09/10 10:25:25;;;;;;;11.13;7.75;;;30.70;99.90;;;;;;5011851;28;20692;-64
2023/09/10 10:27:53;;;;;;;10.30;7.65;;;30.90;99.90;;;;;;5011282;28;20320;-65
2023/09/10 10:30:21;;;;;;;7.88;7.05;;;31.20;99.90;;;;;;5011615;28;20280;-63
2023/09/10 10:32:52;;;;;;;8.27;7.32;;;31.50;99.90;;;;;;5011839;28;20202;-64
2023/09/10 10:35:20;;;;;;;6.50;6.00;;;31.70;99.90;;;;;;5011556;28;20218;-63
2023/09/10 10:37:52;;;;;;;11.65;7.28;;;31.80;99.90;;;;;;5011455;28;20199;-64
2023/09/10 10:40:22;;;;;;;7.68;6.65;;;32.00;99.90;;;;;;5011268;28;20235;-64
2023/09/10 10:42:51;;;;;;;10.38;7.18;;;32.10;99.90;;;;;;5011552;28;20297;-65
2023/09/10 10:45:19;;;;;;;8.18;6.88;;;32.30;99.90;;;;;;5011483;28;20238;-65
2023/09/10 10:47:48;;;;;;;6.70;6.13;;;32.50;99.90;;;;;;5011513;28;20313;-65
2023/09/10 10:50:21;;;;;;;12.65;7.00;;;32.70;99.90;;;;;;5011391;28;20226;-65
2023/09/10 10:52:52;;;;;;;10.70;6.60;;;33.00;99.90;;;;;;5011559;28;20206;-65
2023/09/10 10:55:20;;;;;;;8.93;6.38;;;33.20;99.90;;;;;;5011356;28;20229;-66
2023/09/10 10:57:48;;;;;;;13.68;6.88;;;33.40;99.90;;;;;;5010447;28;20637;-66
2023/09/10 11:00:17;;;;;;;9.45;6.68;;;33.60;99.90;;;;;;5011329;28;20229;-65
2023/09/10 11:02:46;;;;;;;11.63;10.38;;;33.80;99.90;;;;;;5019635;28;20249;-65
2023/09/10 11:05:13;;;;;;;11.00;7.03;;;34.00;99.90;;;;;;5019438;28;20727;-64
2023/09/10 11:07:41;;;;;;;9.60;7.45;;;34.20;99.90;;;;;;5020100;28;20321;-65
2023/09/10 11:10:42;;;;;;;9.32;6.80;;;34.50;99.90;;;;;;5022723;28;20750;-65
2023/09/10 11:13:11;;;;;;;6.72;5.70;;;34.60;99.90;;;;;;5011302;28;20207;-64
2023/09/10 11:15:55;;;;;;;11.68;5.65;;;34.70;99.90;;;;;;5011168;28;20305;-65
2023/09/10 11:18:42;;;;;;;12.93;6.15;;;34.70;99.90;;;;;;5012792;28;20202;-69
2023/09/10 11:21:11;;;;;;;13.05;6.20;;;34.80;99.90;;;;;;5015232;28;20265;-64
2023/09/10 11:23:39;;;;;;;10.20;5.60;;;35.00;99.90;;;;;;5015009;28;20254;-66
2023/09/10 11:26:31;;;;;;;15.63;5.57;;;35.10;99.90;;;;;;5014403;28;20226;-64
2023/09/10 11:29:00;;;;;;;11.90;5.95;;;35.40;99.90;;;;;;5023541;28;20230;-64
2023/09/10 11:31:38;;;;;;;10.20;5.93;;;35.60;99.90;;;;;;5021815;28;20206;-63
2023/09/10 11:34:35;;;;;;;16.77;6.68;;;35.80;99.90;;;;;;5014314;28;20210;-63
2023/09/10 11:37:04;;;;;;;10.68;5.85;;;35.70;99.90;;;;;;5014499;28;20199;-64
2023/09/10 11:39:32;;;;;;;15.38;6.25;;;35.80;99.90;;;;;;5028704;23;20269;-64
2023/09/10 11:42:02;;;;;;;17.88;5.88;;;35.90;99.70;;;;;;5014767;28;20207;-64
2023/09/10 11:44:30;;;;;;;21.27;6.35;;;36.00;98.90;;;;;;5014527;28;20250;-64
2023/09/10 11:46:58;;;;;;;11.55;5.38;;;36.20;98.90;;;;;;5014308;28;20214;-64
2023/09/10 11:49:27;;;;;;;16.95;6.00;;;36.50;98.70;;;;;;5014193;28;20604;-64
2023/09/10 11:51:56;;;;;;;16.05;6.05;;;36.60;97.70;;;;;;5014595;28;20680;-64
2023/09/10 11:54:24;;;;;;;18.38;5.90;;;36.50;98.20;;;;;;5013443;28;20230;-64
2023/09/10 11:56:53;;;;;;;21.50;5.65;;;36.50;95.70;;;;;;5014065;28;20246;-64
2023/09/10 11:59:25;;;;;;;19.70;5.00;;;36.50;94.10;;;;;;5014128;28;20242;-64
2023/09/10 12:01:54;;;;;;;15.45;5.90;;;36.70;94.00;;;;;;5014314;28;20261;-64
2023/09/10 12:04:30;;;;;;;17.35;5.68;;;37.00;94.40;;;;;;5014353;28;20211;-64
2023/09/10 12:06:58;;;;;;;21.42;5.43;;;37.10;94.20;;;;;;5013958;28;20228;-64
2023/09/10 12:09:29;;;;;;;21.77;5.72;;;37.10;93.80;;;;;;5014012;28;20242;-64
2023/09/10 12:11:57;;;;;;;19.55;5.60;;;37.20;92.40;;;;;;5014193;28;20222;-63
2023/09/10 12:14:26;;;;;;;18.33;5.78;;;37.40;93.40;;;;;;5012665;28;20245;-64
2023/09/10 12:16:54;;;;;;;17.08;5.22;;;37.60;93.80;;;;;;5008104;28;20676;-63
2023/09/10 12:19:22;;;;;;;14.48;5.38;;;37.80;92.50;;;;;;5014567;28;20198;-63
2023/09/10 12:21:51;;;;;;;13.60;5.85;;;37.90;91.30;;;;;;5007286;28;20289;-64
2023/09/10 12:24:18;;;;;;;11.52;5.38;;;38.10;92.30;;;;;;5011013;28;20277;-63
2023/09/10 12:26:46;;;;;;;10.38;5.10;;;38.00;91.00;;;;;;5011649;28;20289;-63
2023/09/10 12:29:14;;;;;;;16.40;5.28;;;38.10;91.10;;;;;;5010381;28;20313;-63
2023/09/10 12:31:44;;;;;;;13.27;6.18;;;38.20;89.40;;;;;;5006349;28;20630;-63
2023/09/10 12:34:14;;;;;;;16.25;6.03;;;38.10;90.80;;;;;;5010112;28;20209;-63
2023/09/10 12:36:42;;;;;;;14.80;6.18;;;38.40;90.20;;;;;;5007112;28;20285;-63
2023/09/10 12:39:18;;;;;;;15.88;5.40;;;38.40;90.90;;;;;;5003120;28;20257;-63
2023/09/10 12:41:49;;;;;;;17.55;5.95;;;38.60;91.00;;;;;;5012031;28;20207;-63
2023/09/10 12:44:17;;;;;;;16.45;5.57;;;38.40;88.40;;;;;;5009161;28;20203;-63
2023/09/10 12:46:46;;;;;;;16.80;5.50;;;38.30;88.50;;;;;;5010700;28;20210;-63